Centenario Blu — 3FXD7 — position and weather

sailwx.info

Track history (hours):
 
Tides and Currents Weather Stations Pressure Air Temp Water Temp Dewpoint Dewpoint Depression Visibility Wind Speed Wind Dir Waves Ship Positions

Centenario Blu

Last reported at 2018-Apr-26 15:30 UTC. Time now 2018-Apr-26 15:37 UTC.
Position N 33°32' E 131°52'.

Length 190 m; draft 6.5 m.

Type: Cargo ship. MMSI: 356832000.

Date/timePositionNaut miles runAvg speedWind from/ knotsBaromVisibWave heightAir tempDewpointWater temp
2018-Apr-26 15:30N 33°32' E 131°52'612.6
2018-Apr-26 15:00N 33°26' E 131°55'712.3
2018-Apr-26 14:27N 33°20' E 131°59'511.1
2018-Apr-26 14:00N 33°16' E 132°02'611.9
2018-Apr-26 13:29N 33°11' E 132°07'612.4
2018-Apr-26 13:00N 33°06' E 132°11'611.8
2018-Apr-26 12:28N 32°60' E 132°13'50510.5
2018-Apr-24 12:34N 30°59' E 122°35'312.1
2018-Apr-24 12:18N 30°59' E 122°32'311.6
2018-Apr-24 12:00N 31°00' E 122°28'611.9
2018-Apr-24 11:30N 31°01' E 122°21'511.1
2018-Apr-24 11:00N 31°02' E 122°15'510.9
2018-Apr-24 10:30N 31°03' E 122°08'4 8.0
2018-Apr-24 10:00N 31°04' E 122°04'4 9.1
2018-Apr-24 09:30N 31°06' E 121°59'510.9
2018-Apr-24 09:00N 31°09' E 121°53'611.8
2018-Apr-24 08:30N 31°13' E 121°48'1611.9
2018-Apr-24 07:10N 31°23' E 121°35'212.0
2018-Apr-24 06:59N 31°24' E 121°32'4 8.6
2018-Apr-24 06:28N 31°27' E 121°28'4 8.2
2018-Apr-24 06:00N 31°30' E 121°25'4 7.8
2018-Apr-24 05:30N 31°32' E 121°21'612.6
2018-Apr-24 05:00N 31°37' E 121°16'714.1
2018-Apr-24 04:31N 31°41' E 121°10'713.9
2018-Apr-24 04:00N 31°46' E 121°04'  
2018-Apr-20 00:36N 31°47' E 120°59'1 7.6
2018-Apr-20 00:29N 31°47' E 121°00'5 9.9
2018-Apr-20 00:00N 31°45' E 121°05'5 9.8
2018-Apr-19 23:30N 31°42' E 121°09'4 8.3
2018-Apr-19 23:00N 31°39' E 121°13'510.8
2018-Apr-19 22:30N 31°35' E 121°18'510.6
2018-Apr-19 22:00N 31°32' E 121°22'510.3
2018-Apr-19 21:30N 31°29' E 121°27'3 6.7
2018-Apr-19 21:00N 31°26' E 121°30'3 6.0
2018-Apr-19 20:30N 31°24' E 121°33'4 7.7
2018-Apr-19 20:00N 31°23' E 121°36'5 8.5
2018-Apr-19 19:21N 31°20' E 121°42'3 9.0
2018-Apr-19 19:00N 31°19' E 121°45'610.8
2018-Apr-19 18:27N 31°16' E 121°52'611.8
2018-Apr-19 17:59N 31°15' E 121°58'1012.4
2018-Apr-19 17:09N 31°12' E 122°09'213.0
2018-Apr-19 17:00N 31°10' E 122°11'713.8
2018-Apr-19 16:30N 31°06' E 122°18'612.6
2018-Apr-19 16:00N 31°07' E 122°25'4 7.1
2018-Apr-19 15:30N 31°07' E 122°29'510.0
2018-Apr-19 14:59N 31°06' E 122°35'510.6
2018-Apr-19 14:30N 31°06' E 122°41'2 2.9
2018-Apr-19 13:59N 31°07' E 122°43'1 1.1
2018-Apr-19 13:20N 31°08' E 122°42'0 0.3
2018-Apr-19 12:53N 31°08' E 122°43'0 0.1
2018-Apr-19 12:29N 31°08' E 122°43'0 0.1
2018-Apr-19 11:59N 31°08' E 122°43'0 0.0
2018-Apr-19 06:59N 31°08' E 122°43'0 0.1
2018-Apr-19 06:29N 31°08' E 122°43'0 0.0
2018-Apr-19 01:53N 31°08' E 122°42'0 0.0
2018-Apr-18 17:35N 31°08' E 122°43'0 0.0
2018-Apr-18 17:14N 31°08' E 122°43'0 0.1
2018-Apr-18 16:53N 31°08' E 122°42'0 0.1
2018-Apr-18 16:20N 31°08' E 122°42'0 0.0
2018-Apr-18 15:20N 31°08' E 122°42'0 0.1
2018-Apr-18 14:05N 31°08' E 122°42'0 0.1
2018-Apr-18 13:47N 31°08' E 122°42'0 0.3
2018-Apr-18 13:30N 31°08' E 122°42'0 0.1
2018-Apr-18 12:59N 31°08' E 122°42'0 0.1
2018-Apr-18 10:53N 31°08' E 122°43'0 0.0
2018-Apr-18 09:38N 31°08' E 122°43'0 0.0
2018-Apr-18 09:09N 31°08' E 122°43'0 0.1
2018-Apr-18 08:41N 31°08' E 122°43'0 0.1
2018-Apr-18 08:11N 31°08' E 122°43'0 0.3
2018-Apr-18 07:59N 31°08' E 122°43'0 0.0
2018-Apr-18 07:26N 31°08' E 122°43'0 0.1
2018-Apr-18 06:50N 31°08' E 122°43'0 0.1
2018-Apr-18 04:38N 31°08' E 122°42'0 0.2
2018-Apr-18 04:26N 31°08' E 122°42'0 0.1
2018-Apr-18 03:56N 31°08' E 122°42'0 0.1
2018-Apr-18 02:41N 31°08' E 122°42'0 0.0
2018-Apr-18 02:29N 31°08' E 122°42'0 0.1
2018-Apr-18 01:59N 31°08' E 122°42'0 0.1
2018-Apr-18 01:18N 31°08' E 122°42'0 0.2
2018-Apr-18 00:13N 31°08' E 122°43'0 0.0
2018-Apr-17 23:53N 31°08' E 122°43'0 0.0
2018-Apr-17 23:26N 31°08' E 122°43'0 0.1
2018-Apr-17 21:29N 31°08' E 122°43'0 0.1
2018-Apr-17 20:20N 31°08' E 122°43'0 0.1
2018-Apr-17 18:50N 31°08' E 122°43'0 0.0
2018-Apr-17 18:20N 31°08' E 122°43'0 0.1
2018-Apr-17 17:56N 31°08' E 122°43'0 0.1
2018-Apr-17 17:20N 31°08' E 122°43'0 0.1
2018-Apr-17 16:59N 31°08' E 122°43'0 0.1
2018-Apr-17 16:20N 31°08' E 122°42'0 0.1
2018-Apr-17 15:53N 31°08' E 122°42'0 0.0
2018-Apr-17 15:20N 31°08' E 122°42'0 0.2
2018-Apr-17 14:59N 31°08' E 122°42'0 0.0
2018-Apr-17 14:29N 31°08' E 122°42'0 0.0
2018-Apr-17 13:44N 31°08' E 122°42'0 0.1
2018-Apr-17 13:23N 31°08' E 122°42'0 0.2
2018-Apr-17 12:47N 31°08' E 122°42'0 0.1
2018-Apr-17 10:30N 31°08' E 122°43'0 0.0
2018-Apr-17 09:06N 31°08' E 122°43'0 0.0
2018-Apr-17 08:47N 31°08' E 122°43'0 0.0
2018-Apr-17 08:11N 31°08' E 122°43'0 0.0
2018-Apr-17 07:57N 31°08' E 122°43'  
Track history (hours):
 
Tides and Currents Weather Stations Pressure Air Temp Water Temp Dewpoint Dewpoint Depression Visibility Wind Speed Wind Dir Waves Ship Positions

Centenario Blu

Last reported at 2018-Apr-26 15:30 UTC. Time now 2018-Apr-26 15:37 UTC.
Position N 33°32' E 131°52'.

Length 190 m; draft 6.5 m.

Type: Cargo ship. MMSI: 356832000.

Date/timePositionNaut miles runAvg speedWind from/ knotsBaromVisibWave heightAir tempDewpointWater temp
2018-Apr-26 15:30N 33°32' E 131°52'612.6
2018-Apr-26 15:00N 33°26' E 131°55'712.3
2018-Apr-26 14:27N 33°20' E 131°59'511.1
2018-Apr-26 14:00N 33°16' E 132°02'611.9
2018-Apr-26 13:29N 33°11' E 132°07'612.4
2018-Apr-26 13:00N 33°06' E 132°11'611.8
2018-Apr-26 12:28N 32°60' E 132°13'50510.5
2018-Apr-24 12:34N 30°59' E 122°35'312.1
2018-Apr-24 12:18N 30°59' E 122°32'311.6
2018-Apr-24 12:00N 31°00' E 122°28'611.9
2018-Apr-24 11:30N 31°01' E 122°21'511.1
2018-Apr-24 11:00N 31°02' E 122°15'510.9
2018-Apr-24 10:30N 31°03' E 122°08'4 8.0
2018-Apr-24 10:00N 31°04' E 122°04'4 9.1
2018-Apr-24 09:30N 31°06' E 121°59'510.9
2018-Apr-24 09:00N 31°09' E 121°53'611.8
2018-Apr-24 08:30N 31°13' E 121°48'1611.9
2018-Apr-24 07:10N 31°23' E 121°35'212.0
2018-Apr-24 06:59N 31°24' E 121°32'4 8.6
2018-Apr-24 06:28N 31°27' E 121°28'4 8.2
2018-Apr-24 06:00N 31°30' E 121°25'4 7.8
2018-Apr-24 05:30N 31°32' E 121°21'612.6
2018-Apr-24 05:00N 31°37' E 121°16'714.1
2018-Apr-24 04:31N 31°41' E 121°10'713.9
2018-Apr-24 04:00N 31°46' E 121°04'  
2018-Apr-20 00:36N 31°47' E 120°59'1 7.6
2018-Apr-20 00:29N 31°47' E 121°00'5 9.9
2018-Apr-20 00:00N 31°45' E 121°05'5 9.8
2018-Apr-19 23:30N 31°42' E 121°09'4 8.3
2018-Apr-19 23:00N 31°39' E 121°13'510.8
2018-Apr-19 22:30N 31°35' E 121°18'510.6
2018-Apr-19 22:00N 31°32' E 121°22'510.3
2018-Apr-19 21:30N 31°29' E 121°27'3 6.7
2018-Apr-19 21:00N 31°26' E 121°30'3 6.0
2018-Apr-19 20:30N 31°24' E 121°33'4 7.7
2018-Apr-19 20:00N 31°23' E 121°36'5 8.5
2018-Apr-19 19:21N 31°20' E 121°42'3 9.0
2018-Apr-19 19:00N 31°19' E 121°45'610.8
2018-Apr-19 18:27N 31°16' E 121°52'611.8
2018-Apr-19 17:59N 31°15' E 121°58'1012.4
2018-Apr-19 17:09N 31°12' E 122°09'213.0
2018-Apr-19 17:00N 31°10' E 122°11'713.8
2018-Apr-19 16:30N 31°06' E 122°18'612.6
2018-Apr-19 16:00N 31°07' E 122°25'4 7.1
2018-Apr-19 15:30N 31°07' E 122°29'510.0
2018-Apr-19 14:59N 31°06' E 122°35'510.6
2018-Apr-19 14:30N 31°06' E 122°41'2 2.9
2018-Apr-19 13:59N 31°07' E 122°43'1 1.1
2018-Apr-19 13:20N 31°08' E 122°42'0 0.3
2018-Apr-19 12:53N 31°08' E 122°43'0 0.1
2018-Apr-19 12:29N 31°08' E 122°43'0 0.1
2018-Apr-19 11:59N 31°08' E 122°43'0 0.0
2018-Apr-19 06:59N 31°08' E 122°43'0 0.1
2018-Apr-19 06:29N 31°08' E 122°43'0 0.0
2018-Apr-19 01:53N 31°08' E 122°42'0 0.0
2018-Apr-18 17:35N 31°08' E 122°43'0 0.0
2018-Apr-18 17:14N 31°08' E 122°43'0 0.1
2018-Apr-18 16:53N 31°08' E 122°42'0 0.1
2018-Apr-18 16:20N 31°08' E 122°42'0 0.0
2018-Apr-18 15:20N 31°08' E 122°42'0 0.1
2018-Apr-18 14:05N 31°08' E 122°42'0 0.1
2018-Apr-18 13:47N 31°08' E 122°42'0 0.3
2018-Apr-18 13:30N 31°08' E 122°42'0 0.1
2018-Apr-18 12:59N 31°08' E 122°42'0 0.1
2018-Apr-18 10:53N 31°08' E 122°43'0 0.0
2018-Apr-18 09:38N 31°08' E 122°43'0 0.0
2018-Apr-18 09:09N 31°08' E 122°43'0 0.1
2018-Apr-18 08:41N 31°08' E 122°43'0 0.1
2018-Apr-18 08:11N 31°08' E 122°43'0 0.3
2018-Apr-18 07:59N 31°08' E 122°43'0 0.0
2018-Apr-18 07:26N 31°08' E 122°43'0 0.1
2018-Apr-18 06:50N 31°08' E 122°43'0 0.1
2018-Apr-18 04:38N 31°08' E 122°42'0 0.2
2018-Apr-18 04:26N 31°08' E 122°42'0 0.1
2018-Apr-18 03:56N 31°08' E 122°42'0 0.1
2018-Apr-18 02:41N 31°08' E 122°42'0 0.0
2018-Apr-18 02:29N 31°08' E 122°42'0 0.1
2018-Apr-18 01:59N 31°08' E 122°42'0 0.1
2018-Apr-18 01:18N 31°08' E 122°42'0 0.2
2018-Apr-18 00:13N 31°08' E 122°43'0 0.0
2018-Apr-17 23:53N 31°08' E 122°43'0 0.0
2018-Apr-17 23:26N 31°08' E 122°43'0 0.1
2018-Apr-17 21:29N 31°08' E 122°43'0 0.1
2018-Apr-17 20:20N 31°08' E 122°43'0 0.1
2018-Apr-17 18:50N 31°08' E 122°43'0 0.0
2018-Apr-17 18:20N 31°08' E 122°43'0 0.1
2018-Apr-17 17:56N 31°08' E 122°43'0 0.1
2018-Apr-17 17:20N 31°08' E 122°43'0 0.1
2018-Apr-17 16:59N 31°08' E 122°43'0 0.1
2018-Apr-17 16:20N 31°08' E 122°42'0 0.1
2018-Apr-17 15:53N 31°08' E 122°42'0 0.0
2018-Apr-17 15:20N 31°08' E 122°42'0 0.2
2018-Apr-17 14:59N 31°08' E 122°42'0 0.0
2018-Apr-17 14:29N 31°08' E 122°42'0 0.0
2018-Apr-17 13:44N 31°08' E 122°42'0 0.1
2018-Apr-17 13:23N 31°08' E 122°42'0 0.2
2018-Apr-17 12:47N 31°08' E 122°42'0 0.1
2018-Apr-17 10:30N 31°08' E 122°43'0 0.0
2018-Apr-17 09:06N 31°08' E 122°43'0 0.0
2018-Apr-17 08:47N 31°08' E 122°43'0 0.0
2018-Apr-17 08:11N 31°08' E 122°43'0 0.0
2018-Apr-17 07:57N 31°08' E 122°43'  

Dump ship's entire track history